sensor_id;sensor_type;location;lat;lon;timestamp;P1;durP1;ratioP1;P2;durP2;ratioP2
83404;SDS011;73331;48.168;20.776;2023-11-19T00:00:03;17.27;;;7.07;;
83404;SDS011;73331;48.168;20.776;2023-11-19T00:01:37;12.52;;;6.32;;
83404;SDS011;73331;48.168;20.776;2023-11-19T00:03:07;9.82;;;5.72;;
83404;SDS011;73331;48.168;20.776;2023-11-19T00:04:38;13.00;;;5.97;;
83404;SDS011;73331;48.168;20.776;2023-11-19T00:06:11;12.25;;;5.05;;
83404;SDS011;73331;48.168;20.776;2023-11-19T00:07:42;10.55;;;5.30;;
83404;SDS011;73331;48.168;20.776;2023-11-19T00:09:12;11.88;;;5.88;;
83404;SDS011;73331;48.168;20.776;2023-11-19T00:10:43;10.02;;;5.30;;
83404;SDS011;73331;48.168;20.776;2023-11-19T00:12:14;9.73;;;5.00;;
83404;SDS011;73331;48.168;20.776;2023-11-19T00:13:45;13.23;;;5.50;;
83404;SDS011;73331;48.168;20.776;2023-11-19T00:15:16;9.68;;;4.63;;
83404;SDS011;73331;48.168;20.776;2023-11-19T00:16:48;8.82;;;4.20;;
83404;SDS011;73331;48.168;20.776;2023-11-19T00:18:21;9.73;;;4.65;;
83404;SDS011;73331;48.168;20.776;2023-11-19T00:19:52;11.23;;;4.95;;
83404;SDS011;73331;48.168;20.776;2023-11-19T00:21:23;10.07;;;4.63;;
83404;SDS011;73331;48.168;20.776;2023-11-19T00:22:53;10.88;;;4.43;;
83404;SDS011;73331;48.168;20.776;2023-11-19T00:24:24;7.55;;;4.20;;
83404;SDS011;73331;48.168;20.776;2023-11-19T00:25:54;9.63;;;4.88;;
83404;SDS011;73331;48.168;20.776;2023-11-19T00:27:25;10.50;;;4.65;;
83404;SDS011;73331;48.168;20.776;2023-11-19T00:28:56;8.65;;;4.85;;
83404;SDS011;73331;48.168;20.776;2023-11-19T00:30:27;8.52;;;4.35;;
83404;SDS011;73331;48.168;20.776;2023-11-19T00:31:58;18.73;;;6.55;;
83404;SDS011;73331;48.168;20.776;2023-11-19T00:33:29;71.78;;;18.67;;
83404;SDS011;73331;48.168;20.776;2023-11-19T00:34:59;47.42;;;14.20;;
83404;SDS011;73331;48.168;20.776;2023-11-19T00:36:30;41.72;;;13.75;;
83404;SDS011;73331;48.168;20.776;2023-11-19T00:38:01;78.20;;;19.92;;
83404;SDS011;73331;48.168;20.776;2023-11-19T00:39:33;55.15;;;16.00;;
83404;SDS011;73331;48.168;20.776;2023-11-19T00:41:03;31.65;;;10.05;;
83404;SDS011;73331;48.168;20.776;2023-11-19T00:42:34;32.63;;;9.77;;
83404;SDS011;73331;48.168;20.776;2023-11-19T00:44:05;44.30;;;12.32;;
83404;SDS011;73331;48.168;20.776;2023-11-19T00:45:36;40.83;;;13.18;;
83404;SDS011;73331;48.168;20.776;2023-11-19T00:47:06;31.30;;;10.57;;
83404;SDS011;73331;48.168;20.776;2023-11-19T00:48:37;11.02;;;5.50;;
83404;SDS011;73331;48.168;20.776;2023-11-19T00:50:08;14.35;;;6.30;;
83404;SDS011;73331;48.168;20.776;2023-11-19T00:51:42;12.43;;;4.82;;
83404;SDS011;73331;48.168;20.776;2023-11-19T00:53:13;13.55;;;5.88;;
83404;SDS011;73331;48.168;20.776;2023-11-19T00:54:44;11.38;;;6.18;;
83404;SDS011;73331;48.168;20.776;2023-11-19T00:56:15;9.68;;;5.88;;
83404;SDS011;73331;48.168;20.776;2023-11-19T00:57:47;14.73;;;6.00;;
83404;SDS011;73331;48.168;20.776;2023-11-19T00:59:18;12.45;;;6.32;;
83404;SDS011;73331;48.168;20.776;2023-11-19T01:00:49;9.38;;;5.15;;
83404;SDS011;73331;48.168;20.776;2023-11-19T01:02:20;11.52;;;6.55;;
83404;SDS011;73331;48.168;20.776;2023-11-19T01:03:51;12.73;;;6.07;;
83404;SDS011;73331;48.168;20.776;2023-11-19T01:05:21;12.55;;;6.25;;
83404;SDS011;73331;48.168;20.776;2023-11-19T01:06:52;14.88;;;6.30;;
83404;SDS011;73331;48.168;20.776;2023-11-19T01:08:24;10.52;;;5.43;;
83404;SDS011;73331;48.168;20.776;2023-11-19T01:09:55;10.20;;;4.68;;
83404;SDS011;73331;48.168;20.776;2023-11-19T01:11:26;9.35;;;5.10;;
83404;SDS011;73331;48.168;20.776;2023-11-19T01:12:56;7.70;;;4.90;;
83404;SDS011;73331;48.168;20.776;2023-11-19T01:14:27;11.45;;;4.78;;
83404;SDS011;73331;48.168;20.776;2023-11-19T01:15:59;8.05;;;4.40;;
83404;SDS011;73331;48.168;20.776;2023-11-19T01:17:29;10.48;;;5.95;;
83404;SDS011;73331;48.168;20.776;2023-11-19T01:19:01;9.90;;;4.53;;
83404;SDS011;73331;48.168;20.776;2023-11-19T01:20:34;9.45;;;4.68;;
83404;SDS011;73331;48.168;20.776;2023-11-19T01:22:05;11.25;;;4.80;;
83404;SDS011;73331;48.168;20.776;2023-11-19T01:23:36;9.82;;;5.15;;
83404;SDS011;73331;48.168;20.776;2023-11-19T01:25:07;10.00;;;4.70;;
83404;SDS011;73331;48.168;20.776;2023-11-19T01:26:38;11.45;;;5.60;;
83404;SDS011;73331;48.168;20.776;2023-11-19T01:28:08;11.20;;;4.88;;
83404;SDS011;73331;48.168;20.776;2023-11-19T01:29:39;16.88;;;6.97;;
83404;SDS011;73331;48.168;20.776;2023-11-19T01:31:11;11.52;;;6.35;;
83404;SDS011;73331;48.168;20.776;2023-11-19T01:32:42;19.58;;;6.93;;
83404;SDS011;73331;48.168;20.776;2023-11-19T01:34:13;23.27;;;7.93;;
83404;SDS011;73331;48.168;20.776;2023-11-19T01:35:44;16.10;;;7.97;;
83404;SDS011;73331;48.168;20.776;2023-11-19T01:37:15;19.77;;;7.75;;
83404;SDS011;73331;48.168;20.776;2023-11-19T01:38:45;12.60;;;5.22;;
83404;SDS011;73331;48.168;20.776;2023-11-19T01:40:19;10.70;;;5.47;;
83404;SDS011;73331;48.168;20.776;2023-11-19T01:41:51;10.95;;;5.45;;
83404;SDS011;73331;48.168;20.776;2023-11-19T01:43:35;11.80;;;5.68;;
83404;SDS011;73331;48.168;20.776;2023-11-19T01:45:06;15.23;;;6.40;;
83404;SDS011;73331;48.168;20.776;2023-11-19T01:46:42;14.35;;;6.30;;
83404;SDS011;73331;48.168;20.776;2023-11-19T01:48:15;12.63;;;5.82;;
83404;SDS011;73331;48.168;20.776;2023-11-19T01:49:46;9.32;;;4.78;;
83404;SDS011;73331;48.168;20.776;2023-11-19T01:51:16;11.13;;;5.28;;
83404;SDS011;73331;48.168;20.776;2023-11-19T01:52:48;12.38;;;5.65;;
83404;SDS011;73331;48.168;20.776;2023-11-19T01:54:18;12.13;;;6.35;;
83404;SDS011;73331;48.168;20.776;2023-11-19T01:55:50;10.25;;;5.07;;
83404;SDS011;73331;48.168;20.776;2023-11-19T01:57:22;12.02;;;5.32;;
83404;SDS011;73331;48.168;20.776;2023-11-19T01:58:54;10.93;;;4.95;;
83404;SDS011;73331;48.168;20.776;2023-11-19T02:01:56;13.10;;;5.57;;
83404;SDS011;73331;48.168;20.776;2023-11-19T02:03:28;13.80;;;5.03;;
83404;SDS011;73331;48.168;20.776;2023-11-19T02:04:59;11.75;;;5.55;;
83404;SDS011;73331;48.168;20.776;2023-11-19T02:06:30;13.32;;;5.72;;
83404;SDS011;73331;48.168;20.776;2023-11-19T02:08:03;14.40;;;6.22;;
83404;SDS011;73331;48.168;20.776;2023-11-19T02:09:33;13.23;;;5.93;;
83404;SDS011;73331;48.168;20.776;2023-11-19T02:11:04;12.30;;;6.07;;
83404;SDS011;73331;48.168;20.776;2023-11-19T02:12:37;12.70;;;4.82;;
83404;SDS011;73331;48.168;20.776;2023-11-19T02:14:07;10.25;;;5.88;;
83404;SDS011;73331;48.168;20.776;2023-11-19T02:15:38;12.02;;;5.55;;
83404;SDS011;73331;48.168;20.776;2023-11-19T02:17:24;11.68;;;5.30;;
83404;SDS011;73331;48.168;20.776;2023-11-19T02:18:58;12.48;;;5.00;;
83404;SDS011;73331;48.168;20.776;2023-11-19T02:20:29;8.13;;;4.78;;
83404;SDS011;73331;48.168;20.776;2023-11-19T02:22:00;10.68;;;5.28;;
83404;SDS011;73331;48.168;20.776;2023-11-19T02:23:31;11.50;;;5.63;;
83404;SDS011;73331;48.168;20.776;2023-11-19T02:25:04;8.90;;;5.15;;
83404;SDS011;73331;48.168;20.776;2023-11-19T02:28:41;9.80;;;4.65;;
83404;SDS011;73331;48.168;20.776;2023-11-19T02:30:12;16.75;;;7.32;;
83404;SDS011;73331;48.168;20.776;2023-11-19T02:31:45;14.80;;;6.78;;
83404;SDS011;73331;48.168;20.776;2023-11-19T02:33:17;16.73;;;7.03;;
83404;SDS011;73331;48.168;20.776;2023-11-19T02:34:48;22.67;;;10.30;;
83404;SDS011;73331;48.168;20.776;2023-11-19T02:36:18;18.85;;;8.52;;
83404;SDS011;73331;48.168;20.776;2023-11-19T02:37:49;24.65;;;10.30;;
83404;SDS011;73331;48.168;20.776;2023-11-19T02:39:20;19.55;;;7.90;;
83404;SDS011;73331;48.168;20.776;2023-11-19T02:40:51;18.70;;;7.95;;
83404;SDS011;73331;48.168;20.776;2023-11-19T02:42:22;18.77;;;8.95;;
83404;SDS011;73331;48.168;20.776;2023-11-19T02:43:53;19.27;;;8.38;;
83404;SDS011;73331;48.168;20.776;2023-11-19T02:45:24;19.38;;;8.38;;
83404;SDS011;73331;48.168;20.776;2023-11-19T02:46:55;22.42;;;8.73;;
83404;SDS011;73331;48.168;20.776;2023-11-19T02:48:29;19.85;;;9.05;;
83404;SDS011;73331;48.168;20.776;2023-11-19T02:50:01;15.05;;;7.25;;
83404;SDS011;73331;48.168;20.776;2023-11-19T02:51:32;20.25;;;9.32;;
83404;SDS011;73331;48.168;20.776;2023-11-19T02:53:03;17.25;;;7.28;;
83404;SDS011;73331;48.168;20.776;2023-11-19T02:54:33;15.63;;;7.00;;
83404;SDS011;73331;48.168;20.776;2023-11-19T02:56:05;12.15;;;6.60;;
83404;SDS011;73331;48.168;20.776;2023-11-19T02:57:45;14.50;;;5.78;;
83404;SDS011;73331;48.168;20.776;2023-11-19T02:59:18;10.65;;;5.97;;
83404;SDS011;73331;48.168;20.776;2023-11-19T03:00:57;15.10;;;7.07;;
83404;SDS011;73331;48.168;20.776;2023-11-19T03:02:29;20.58;;;8.73;;
83404;SDS011;73331;48.168;20.776;2023-11-19T03:04:04;20.85;;;9.13;;
83404;SDS011;73331;48.168;20.776;2023-11-19T03:05:35;14.60;;;6.88;;
83404;SDS011;73331;48.168;20.776;2023-11-19T03:07:06;12.27;;;6.30;;
83404;SDS011;73331;48.168;20.776;2023-11-19T03:08:37;9.73;;;5.82;;
83404;SDS011;73331;48.168;20.776;2023-11-19T03:10:08;9.90;;;4.85;;
83404;SDS011;73331;48.168;20.776;2023-11-19T03:11:39;12.32;;;6.13;;
83404;SDS011;73331;48.168;20.776;2023-11-19T03:13:11;12.57;;;5.68;;
83404;SDS011;73331;48.168;20.776;2023-11-19T03:14:47;12.85;;;6.30;;
83404;SDS011;73331;48.168;20.776;2023-11-19T03:16:18;10.98;;;5.70;;
83404;SDS011;73331;48.168;20.776;2023-11-19T03:17:49;13.50;;;6.07;;
83404;SDS011;73331;48.168;20.776;2023-11-19T03:19:19;14.35;;;6.57;;
83404;SDS011;73331;48.168;20.776;2023-11-19T03:20:50;13.35;;;6.70;;
83404;SDS011;73331;48.168;20.776;2023-11-19T03:23:53;11.48;;;6.18;;
83404;SDS011;73331;48.168;20.776;2023-11-19T03:25:26;14.32;;;6.75;;
83404;SDS011;73331;48.168;20.776;2023-11-19T03:27:03;14.00;;;6.70;;
83404;SDS011;73331;48.168;20.776;2023-11-19T03:28:34;13.80;;;7.32;;
83404;SDS011;73331;48.168;20.776;2023-11-19T03:30:05;13.75;;;7.05;;
83404;SDS011;73331;48.168;20.776;2023-11-19T03:31:36;12.65;;;6.95;;
83404;SDS011;73331;48.168;20.776;2023-11-19T03:33:12;14.55;;;7.07;;
83404;SDS011;73331;48.168;20.776;2023-11-19T03:34:43;14.40;;;7.32;;
83404;SDS011;73331;48.168;20.776;2023-11-19T03:36:13;15.07;;;7.18;;
83404;SDS011;73331;48.168;20.776;2023-11-19T03:37:44;14.57;;;7.00;;
83404;SDS011;73331;48.168;20.776;2023-11-19T03:39:15;13.85;;;6.70;;
83404;SDS011;73331;48.168;20.776;2023-11-19T03:40:45;14.57;;;6.45;;
83404;SDS011;73331;48.168;20.776;2023-11-19T03:42:16;12.93;;;6.25;;
83404;SDS011;73331;48.168;20.776;2023-11-19T03:43:49;13.98;;;7.28;;
83404;SDS011;73331;48.168;20.776;2023-11-19T03:45:19;14.10;;;6.60;;
83404;SDS011;73331;48.168;20.776;2023-11-19T03:46:50;14.95;;;6.32;;
83404;SDS011;73331;48.168;20.776;2023-11-19T03:48:20;11.30;;;6.60;;
83404;SDS011;73331;48.168;20.776;2023-11-19T03:49:51;13.50;;;6.20;;
83404;SDS011;73331;48.168;20.776;2023-11-19T03:51:22;15.27;;;7.30;;
83404;SDS011;73331;48.168;20.776;2023-11-19T03:52:53;14.10;;;5.97;;
83404;SDS011;73331;48.168;20.776;2023-11-19T03:54:23;15.13;;;6.95;;
83404;SDS011;73331;48.168;20.776;2023-11-19T03:55:54;12.70;;;6.35;;
83404;SDS011;73331;48.168;20.776;2023-11-19T03:57:25;13.35;;;7.15;;
83404;SDS011;73331;48.168;20.776;2023-11-19T03:58:58;13.23;;;6.18;;
83404;SDS011;73331;48.168;20.776;2023-11-19T04:00:28;14.93;;;6.63;;
83404;SDS011;73331;48.168;20.776;2023-11-19T04:01:59;17.67;;;6.50;;
83404;SDS011;73331;48.168;20.776;2023-11-19T04:03:31;12.90;;;5.85;;
83404;SDS011;73331;48.168;20.776;2023-11-19T04:05:02;13.75;;;6.70;;
83404;SDS011;73331;48.168;20.776;2023-11-19T04:06:34;14.77;;;6.50;;
83404;SDS011;73331;48.168;20.776;2023-11-19T04:08:04;12.57;;;6.90;;
83404;SDS011;73331;48.168;20.776;2023-11-19T04:09:35;13.90;;;6.38;;
83404;SDS011;73331;48.168;20.776;2023-11-19T04:12:38;13.30;;;6.45;;
83404;SDS011;73331;48.168;20.776;2023-11-19T04:14:09;13.10;;;6.30;;
83404;SDS011;73331;48.168;20.776;2023-11-19T04:15:40;13.38;;;6.70;;
83404;SDS011;73331;48.168;20.776;2023-11-19T04:17:10;13.10;;;7.28;;
83404;SDS011;73331;48.168;20.776;2023-11-19T04:18:41;13.55;;;6.05;;
83404;SDS011;73331;48.168;20.776;2023-11-19T04:20:11;15.60;;;7.45;;
83404;SDS011;73331;48.168;20.776;2023-11-19T04:21:43;19.15;;;7.78;;
83404;SDS011;73331;48.168;20.776;2023-11-19T04:23:14;14.00;;;7.07;;
83404;SDS011;73331;48.168;20.776;2023-11-19T04:24:45;13.35;;;6.50;;
83404;SDS011;73331;48.168;20.776;2023-11-19T04:26:16;13.77;;;7.35;;
83404;SDS011;73331;48.168;20.776;2023-11-19T04:27:47;19.50;;;8.18;;
83404;SDS011;73331;48.168;20.776;2023-11-19T04:29:18;18.35;;;8.52;;
83404;SDS011;73331;48.168;20.776;2023-11-19T04:30:49;14.30;;;6.80;;
83404;SDS011;73331;48.168;20.776;2023-11-19T04:32:20;15.82;;;7.05;;
83404;SDS011;73331;48.168;20.776;2023-11-19T04:33:51;18.00;;;8.07;;
83404;SDS011;73331;48.168;20.776;2023-11-19T04:35:22;17.52;;;8.55;;
83404;SDS011;73331;48.168;20.776;2023-11-19T04:36:53;20.08;;;8.75;;
83404;SDS011;73331;48.168;20.776;2023-11-19T04:38:24;42.03;;;15.02;;
83404;SDS011;73331;48.168;20.776;2023-11-19T04:39:56;51.35;;;19.00;;
83404;SDS011;73331;48.168;20.776;2023-11-19T04:41:27;54.67;;;20.67;;
83404;SDS011;73331;48.168;20.776;2023-11-19T04:42:58;34.60;;;14.27;;
83404;SDS011;73331;48.168;20.776;2023-11-19T04:44:28;33.05;;;15.35;;
83404;SDS011;73331;48.168;20.776;2023-11-19T04:45:59;28.75;;;14.30;;
83404;SDS011;73331;48.168;20.776;2023-11-19T04:47:30;26.10;;;12.52;;
83404;SDS011;73331;48.168;20.776;2023-11-19T04:49:01;29.42;;;11.82;;
83404;SDS011;73331;48.168;20.776;2023-11-19T04:50:31;25.70;;;11.63;;
83404;SDS011;73331;48.168;20.776;2023-11-19T04:52:02;24.08;;;9.80;;
83404;SDS011;73331;48.168;20.776;2023-11-19T04:53:32;22.85;;;10.57;;
83404;SDS011;73331;48.168;20.776;2023-11-19T04:55:04;23.15;;;10.10;;
83404;SDS011;73331;48.168;20.776;2023-11-19T04:56:35;22.58;;;10.20;;
83404;SDS011;73331;48.168;20.776;2023-11-19T04:58:09;21.38;;;9.35;;
83404;SDS011;73331;48.168;20.776;2023-11-19T04:59:40;20.88;;;9.80;;
83404;SDS011;73331;48.168;20.776;2023-11-19T05:01:14;17.27;;;6.95;;
83404;SDS011;73331;48.168;20.776;2023-11-19T05:02:48;16.92;;;8.05;;
83404;SDS011;73331;48.168;20.776;2023-11-19T05:04:18;17.02;;;7.25;;
83404;SDS011;73331;48.168;20.776;2023-11-19T05:05:49;20.83;;;9.13;;
83404;SDS011;73331;48.168;20.776;2023-11-19T05:07:20;20.00;;;8.80;;
83404;SDS011;73331;48.168;20.776;2023-11-19T05:08:50;16.25;;;7.20;;
83404;SDS011;73331;48.168;20.776;2023-11-19T05:10:21;18.48;;;8.65;;
83404;SDS011;73331;48.168;20.776;2023-11-19T05:11:52;20.77;;;9.27;;
83404;SDS011;73331;48.168;20.776;2023-11-19T05:13:22;21.88;;;9.80;;
83404;SDS011;73331;48.168;20.776;2023-11-19T05:14:53;19.70;;;8.75;;
83404;SDS011;73331;48.168;20.776;2023-11-19T05:16:24;24.08;;;9.88;;
83404;SDS011;73331;48.168;20.776;2023-11-19T05:17:54;18.95;;;8.82;;
83404;SDS011;73331;48.168;20.776;2023-11-19T05:19:25;21.05;;;9.90;;
83404;SDS011;73331;48.168;20.776;2023-11-19T05:20:56;23.00;;;9.57;;
83404;SDS011;73331;48.168;20.776;2023-11-19T05:22:26;19.42;;;9.90;;
83404;SDS011;73331;48.168;20.776;2023-11-19T05:23:57;25.33;;;10.88;;
83404;SDS011;73331;48.168;20.776;2023-11-19T05:25:28;27.23;;;10.73;;
83404;SDS011;73331;48.168;20.776;2023-11-19T05:26:58;26.05;;;11.18;;
83404;SDS011;73331;48.168;20.776;2023-11-19T05:28:29;27.77;;;10.82;;
83404;SDS011;73331;48.168;20.776;2023-11-19T05:29:59;24.98;;;10.65;;
83404;SDS011;73331;48.168;20.776;2023-11-19T05:31:30;22.85;;;10.10;;
83404;SDS011;73331;48.168;20.776;2023-11-19T05:33:01;18.85;;;7.68;;
83404;SDS011;73331;48.168;20.776;2023-11-19T05:34:32;23.83;;;9.25;;
83404;SDS011;73331;48.168;20.776;2023-11-19T05:36:03;24.15;;;9.65;;
83404;SDS011;73331;48.168;20.776;2023-11-19T05:37:34;26.48;;;10.15;;
83404;SDS011;73331;48.168;20.776;2023-11-19T05:39:05;27.00;;;9.98;;
83404;SDS011;73331;48.168;20.776;2023-11-19T05:40:36;25.40;;;10.57;;
83404;SDS011;73331;48.168;20.776;2023-11-19T05:42:08;26.35;;;10.57;;
83404;SDS011;73331;48.168;20.776;2023-11-19T05:43:40;25.25;;;10.00;;
83404;SDS011;73331;48.168;20.776;2023-11-19T05:45:11;23.52;;;9.85;;
83404;SDS011;73331;48.168;20.776;2023-11-19T05:46:42;22.75;;;8.93;;
83404;SDS011;73331;48.168;20.776;2023-11-19T05:48:14;22.13;;;9.10;;
83404;SDS011;73331;48.168;20.776;2023-11-19T05:49:44;21.77;;;9.70;;
83404;SDS011;73331;48.168;20.776;2023-11-19T05:51:15;23.38;;;9.85;;
83404;SDS011;73331;48.168;20.776;2023-11-19T05:52:46;29.20;;;11.52;;
83404;SDS011;73331;48.168;20.776;2023-11-19T05:54:16;25.38;;;11.52;;
83404;SDS011;73331;48.168;20.776;2023-11-19T05:55:49;27.55;;;11.90;;
83404;SDS011;73331;48.168;20.776;2023-11-19T05:57:25;23.90;;;9.82;;
83404;SDS011;73331;48.168;20.776;2023-11-19T05:58:55;24.05;;;11.05;;
83404;SDS011;73331;48.168;20.776;2023-11-19T06:00:26;25.83;;;11.25;;
83404;SDS011;73331;48.168;20.776;2023-11-19T06:01:57;22.33;;;10.77;;
83404;SDS011;73331;48.168;20.776;2023-11-19T06:03:28;28.27;;;9.75;;
83404;SDS011;73331;48.168;20.776;2023-11-19T06:04:58;20.25;;;9.60;;
83404;SDS011;73331;48.168;20.776;2023-11-19T06:06:29;21.95;;;10.20;;
83404;SDS011;73331;48.168;20.776;2023-11-19T06:08:00;19.52;;;8.90;;
83404;SDS011;73331;48.168;20.776;2023-11-19T06:09:30;21.80;;;10.38;;
83404;SDS011;73331;48.168;20.776;2023-11-19T06:11:04;19.45;;;8.85;;
83404;SDS011;73331;48.168;20.776;2023-11-19T06:12:34;18.88;;;9.48;;
83404;SDS011;73331;48.168;20.776;2023-11-19T06:14:07;19.52;;;8.93;;
83404;SDS011;73331;48.168;20.776;2023-11-19T06:15:38;20.17;;;9.05;;
83404;SDS011;73331;48.168;20.776;2023-11-19T06:17:09;18.50;;;8.07;;
83404;SDS011;73331;48.168;20.776;2023-11-19T06:18:41;16.77;;;8.23;;
83404;SDS011;73331;48.168;20.776;2023-11-19T06:20:14;20.25;;;9.70;;
83404;SDS011;73331;48.168;20.776;2023-11-19T06:21:44;17.25;;;8.90;;
83404;SDS011;73331;48.168;20.776;2023-11-19T06:23:15;24.92;;;11.57;;
83404;SDS011;73331;48.168;20.776;2023-11-19T06:24:45;29.80;;;12.75;;
83404;SDS011;73331;48.168;20.776;2023-11-19T06:26:16;38.00;;;15.95;;
83404;SDS011;73331;48.168;20.776;2023-11-19T06:27:47;25.65;;;11.57;;
83404;SDS011;73331;48.168;20.776;2023-11-19T06:29:18;31.50;;;13.45;;
83404;SDS011;73331;48.168;20.776;2023-11-19T06:30:48;27.95;;;12.77;;
83404;SDS011;73331;48.168;20.776;2023-11-19T06:32:19;29.55;;;11.65;;
83404;SDS011;73331;48.168;20.776;2023-11-19T06:33:50;27.27;;;12.23;;
83404;SDS011;73331;48.168;20.776;2023-11-19T06:35:20;20.30;;;9.90;;
83404;SDS011;73331;48.168;20.776;2023-11-19T06:36:51;26.35;;;11.38;;
83404;SDS011;73331;48.168;20.776;2023-11-19T06:38:23;45.47;;;20.27;;
83404;SDS011;73331;48.168;20.776;2023-11-19T06:39:53;52.58;;;24.92;;
83404;SDS011;73331;48.168;20.776;2023-11-19T06:41:24;39.90;;;21.33;;
83404;SDS011;73331;48.168;20.776;2023-11-19T06:42:55;32.47;;;17.17;;
83404;SDS011;73331;48.168;20.776;2023-11-19T06:44:26;27.13;;;14.57;;
83404;SDS011;73331;48.168;20.776;2023-11-19T06:45:57;28.85;;;13.05;;
83404;SDS011;73331;48.168;20.776;2023-11-19T06:47:27;32.92;;;12.35;;
83404;SDS011;73331;48.168;20.776;2023-11-19T06:48:58;29.02;;;14.02;;
83404;SDS011;73331;48.168;20.776;2023-11-19T06:50:30;24.98;;;13.40;;
83404;SDS011;73331;48.168;20.776;2023-11-19T06:52:01;25.00;;;12.02;;
83404;SDS011;73331;48.168;20.776;2023-11-19T06:53:32;23.98;;;12.30;;
83404;SDS011;73331;48.168;20.776;2023-11-19T06:55:02;19.20;;;9.82;;
83404;SDS011;73331;48.168;20.776;2023-11-19T06:56:33;19.80;;;9.95;;
83404;SDS011;73331;48.168;20.776;2023-11-19T06:58:05;17.80;;;9.70;;
83404;SDS011;73331;48.168;20.776;2023-11-19T06:59:35;16.95;;;8.98;;
83404;SDS011;73331;48.168;20.776;2023-11-19T07:01:06;19.48;;;8.52;;
83404;SDS011;73331;48.168;20.776;2023-11-19T07:02:38;16.10;;;8.02;;
83404;SDS011;73331;48.168;20.776;2023-11-19T07:04:12;22.90;;;8.98;;
83404;SDS011;73331;48.168;20.776;2023-11-19T07:05:42;18.90;;;9.73;;
83404;SDS011;73331;48.168;20.776;2023-11-19T07:07:14;17.88;;;9.30;;
83404;SDS011;73331;48.168;20.776;2023-11-19T07:08:45;19.45;;;9.40;;
83404;SDS011;73331;48.168;20.776;2023-11-19T07:10:16;21.48;;;11.07;;
83404;SDS011;73331;48.168;20.776;2023-11-19T07:11:47;24.30;;;11.93;;
83404;SDS011;73331;48.168;20.776;2023-11-19T07:13:18;24.70;;;12.65;;
83404;SDS011;73331;48.168;20.776;2023-11-19T07:14:49;25.00;;;12.38;;
83404;SDS011;73331;48.168;20.776;2023-11-19T07:16:20;25.50;;;11.82;;
83404;SDS011;73331;48.168;20.776;2023-11-19T07:17:52;20.83;;;11.82;;
83404;SDS011;73331;48.168;20.776;2023-11-19T07:19:24;23.92;;;11.93;;
83404;SDS011;73331;48.168;20.776;2023-11-19T07:20:55;21.45;;;11.95;;
83404;SDS011;73331;48.168;20.776;2023-11-19T07:22:25;23.58;;;11.73;;
83404;SDS011;73331;48.168;20.776;2023-11-19T07:23:56;24.08;;;10.85;;
83404;SDS011;73331;48.168;20.776;2023-11-19T07:25:27;27.20;;;12.35;;
83404;SDS011;73331;48.168;20.776;2023-11-19T07:26:57;28.13;;;13.82;;
83404;SDS011;73331;48.168;20.776;2023-11-19T07:28:28;25.95;;;13.23;;
83404;SDS011;73331;48.168;20.776;2023-11-19T07:29:59;23.17;;;11.77;;
83404;SDS011;73331;48.168;20.776;2023-11-19T07:31:29;22.63;;;12.30;;
83404;SDS011;73331;48.168;20.776;2023-11-19T07:33:00;27.10;;;13.02;;
83404;SDS011;73331;48.168;20.776;2023-11-19T07:34:30;27.13;;;13.73;;
83404;SDS011;73331;48.168;20.776;2023-11-19T07:36:01;26.75;;;14.70;;
83404;SDS011;73331;48.168;20.776;2023-11-19T07:37:32;21.90;;;10.55;;
83404;SDS011;73331;48.168;20.776;2023-11-19T07:39:03;20.27;;;10.45;;
83404;SDS011;73331;48.168;20.776;2023-11-19T07:40:35;25.27;;;11.63;;
83404;SDS011;73331;48.168;20.776;2023-11-19T07:42:05;24.95;;;11.52;;
83404;SDS011;73331;48.168;20.776;2023-11-19T07:43:36;21.17;;;10.32;;
83404;SDS011;73331;48.168;20.776;2023-11-19T07:45:07;22.38;;;10.15;;
83404;SDS011;73331;48.168;20.776;2023-11-19T07:46:38;23.30;;;10.35;;
83404;SDS011;73331;48.168;20.776;2023-11-19T07:48:09;19.17;;;10.05;;
83404;SDS011;73331;48.168;20.776;2023-11-19T07:49:40;22.38;;;10.07;;
83404;SDS011;73331;48.168;20.776;2023-11-19T07:51:11;18.13;;;9.75;;
83404;SDS011;73331;48.168;20.776;2023-11-19T07:52:42;15.27;;;9.23;;
83404;SDS011;73331;48.168;20.776;2023-11-19T07:54:12;16.30;;;8.02;;
83404;SDS011;73331;48.168;20.776;2023-11-19T07:55:44;20.70;;;10.88;;
83404;SDS011;73331;48.168;20.776;2023-11-19T07:57:14;21.27;;;10.18;;
83404;SDS011;73331;48.168;20.776;2023-11-19T07:58:45;20.90;;;10.27;;
83404;SDS011;73331;48.168;20.776;2023-11-19T08:00:16;19.55;;;10.43;;
83404;SDS011;73331;48.168;20.776;2023-11-19T08:01:47;17.70;;;10.35;;
83404;SDS011;73331;48.168;20.776;2023-11-19T08:03:18;23.02;;;11.48;;
83404;SDS011;73331;48.168;20.776;2023-11-19T08:04:49;21.10;;;10.63;;
83404;SDS011;73331;48.168;20.776;2023-11-19T08:06:22;22.33;;;10.52;;
83404;SDS011;73331;48.168;20.776;2023-11-19T08:07:53;24.23;;;13.15;;
83404;SDS011;73331;48.168;20.776;2023-11-19T08:09:23;27.58;;;12.90;;
83404;SDS011;73331;48.168;20.776;2023-11-19T08:10:54;23.85;;;14.48;;
83404;SDS011;73331;48.168;20.776;2023-11-19T08:12:26;22.92;;;11.43;;
83404;SDS011;73331;48.168;20.776;2023-11-19T08:13:57;23.25;;;11.95;;
83404;SDS011;73331;48.168;20.776;2023-11-19T08:15:27;29.90;;;14.32;;
83404;SDS011;73331;48.168;20.776;2023-11-19T08:16:58;31.55;;;14.25;;
83404;SDS011;73331;48.168;20.776;2023-11-19T08:18:29;26.48;;;13.05;;
83404;SDS011;73331;48.168;20.776;2023-11-19T08:19:59;31.05;;;14.88;;
83404;SDS011;73331;48.168;20.776;2023-11-19T08:21:30;30.15;;;12.65;;
83404;SDS011;73331;48.168;20.776;2023-11-19T08:23:02;25.95;;;12.32;;
83404;SDS011;73331;48.168;20.776;2023-11-19T08:24:34;27.17;;;12.80;;
83404;SDS011;73331;48.168;20.776;2023-11-19T08:26:05;36.65;;;16.48;;
83404;SDS011;73331;48.168;20.776;2023-11-19T08:27:36;44.60;;;18.52;;
83404;SDS011;73331;48.168;20.776;2023-11-19T08:29:07;36.38;;;16.52;;
83404;SDS011;73331;48.168;20.776;2023-11-19T08:30:37;26.50;;;13.48;;
83404;SDS011;73331;48.168;20.776;2023-11-19T08:32:08;27.77;;;13.55;;
83404;SDS011;73331;48.168;20.776;2023-11-19T08:33:39;28.35;;;14.85;;
83404;SDS011;73331;48.168;20.776;2023-11-19T08:35:09;31.63;;;13.93;;
83404;SDS011;73331;48.168;20.776;2023-11-19T08:36:40;30.92;;;14.63;;
83404;SDS011;73331;48.168;20.776;2023-11-19T08:38:11;30.83;;;14.95;;
83404;SDS011;73331;48.168;20.776;2023-11-19T08:39:41;31.95;;;17.42;;
83404;SDS011;73331;48.168;20.776;2023-11-19T08:41:13;40.33;;;19.42;;
83404;SDS011;73331;48.168;20.776;2023-11-19T08:42:43;36.28;;;17.27;;
83404;SDS011;73331;48.168;20.776;2023-11-19T08:44:14;36.10;;;17.65;;
83404;SDS011;73331;48.168;20.776;2023-11-19T08:45:44;26.33;;;12.82;;
83404;SDS011;73331;48.168;20.776;2023-11-19T08:47:15;22.70;;;11.90;;
83404;SDS011;73331;48.168;20.776;2023-11-19T08:48:48;25.50;;;12.35;;
83404;SDS011;73331;48.168;20.776;2023-11-19T08:50:18;23.80;;;11.63;;
83404;SDS011;73331;48.168;20.776;2023-11-19T08:51:49;24.63;;;12.73;;
83404;SDS011;73331;48.168;20.776;2023-11-19T08:53:19;19.45;;;9.40;;
83404;SDS011;73331;48.168;20.776;2023-11-19T08:54:51;17.98;;;9.27;;
83404;SDS011;73331;48.168;20.776;2023-11-19T08:56:21;18.15;;;9.40;;
83404;SDS011;73331;48.168;20.776;2023-11-19T08:57:52;17.88;;;10.20;;